sensor_id;sensor_type;location;lat;lon;timestamp;pressure;altitude;pressure_sealevel;temperature;humidity
20889;BME280;10604;51.976;7.594;2024-01-15T00:00:07;99315.22;;;14.48;43.15
20889;BME280;10604;51.976;7.594;2024-01-15T00:02:33;99324.22;;;14.84;42.55
20889;BME280;10604;51.976;7.594;2024-01-15T00:04:59;99310.94;;;14.71;42.58
20889;BME280;10604;51.976;7.594;2024-01-15T00:07:24;99313.72;;;14.70;42.04
20889;BME280;10604;51.976;7.594;2024-01-15T00:09:49;99308.97;;;14.10;42.34
20889;BME280;10604;51.976;7.594;2024-01-15T00:12:14;99306.06;;;14.53;42.12
20889;BME280;10604;51.976;7.594;2024-01-15T00:14:39;99297.59;;;15.46;40.75
20889;BME280;10604;51.976;7.594;2024-01-15T00:17:05;99300.31;;;14.84;42.04
20889;BME280;10604;51.976;7.594;2024-01-15T00:19:30;99301.03;;;14.35;42.85
20889;BME280;10604;51.976;7.594;2024-01-15T00:21:57;99287.81;;;13.70;43.61
20889;BME280;10604;51.976;7.594;2024-01-15T00:24:22;99286.09;;;14.60;42.08
20889;BME280;10604;51.976;7.594;2024-01-15T00:26:47;99277.97;;;14.99;41.48
20889;BME280;10604;51.976;7.594;2024-01-15T00:29:13;99276.22;;;13.71;43.39
20889;BME280;10604;51.976;7.594;2024-01-15T00:31:38;99281.44;;;14.76;41.59
20889;BME280;10604;51.976;7.594;2024-01-15T00:34:03;99275.69;;;13.66;42.72
20889;BME280;10604;51.976;7.594;2024-01-15T00:36:28;99274.22;;;12.38;45.93
20889;BME280;10604;51.976;7.594;2024-01-15T00:38:54;99274.50;;;12.19;45.80
20889;BME280;10604;51.976;7.594;2024-01-15T00:41:19;99265.75;;;13.43;43.74
20889;BME280;10604;51.976;7.594;2024-01-15T00:43:45;99271.44;;;14.16;42.43
20889;BME280;10604;51.976;7.594;2024-01-15T00:46:10;99270.38;;;14.06;42.66
20889;BME280;10604;51.976;7.594;2024-01-15T00:48:35;99267.94;;;12.95;43.39
20889;BME280;10604;51.976;7.594;2024-01-15T00:51:01;99270.25;;;13.95;43.06
20889;BME280;10604;51.976;7.594;2024-01-15T00:53:26;99268.69;;;14.05;42.36
20889;BME280;10604;51.976;7.594;2024-01-15T00:55:51;99262.19;;;13.84;43.27
20889;BME280;10604;51.976;7.594;2024-01-15T00:58:16;99270.47;;;13.92;43.32
20889;BME280;10604;51.976;7.594;2024-01-15T01:00:42;99268.81;;;14.54;42.00
20889;BME280;10604;51.976;7.594;2024-01-15T01:03:07;99256.47;;;14.15;42.93
20889;BME280;10604;51.976;7.594;2024-01-15T01:05:33;99258.69;;;13.96;43.14
20889;BME280;10604;51.976;7.594;2024-01-15T01:07:58;99256.06;;;13.56;43.95
20889;BME280;10604;51.976;7.594;2024-01-15T01:10:24;99255.69;;;13.88;43.66
20889;BME280;10604;51.976;7.594;2024-01-15T01:12:49;99261.66;;;14.29;42.35
20889;BME280;10604;51.976;7.594;2024-01-15T01:15:14;99246.50;;;13.41;44.42
20889;BME280;10604;51.976;7.594;2024-01-15T01:17:39;99248.94;;;13.84;42.83
20889;BME280;10604;51.976;7.594;2024-01-15T01:20:05;99243.97;;;13.52;44.25
20889;BME280;10604;51.976;7.594;2024-01-15T01:22:33;99245.31;;;12.77;44.93
20889;BME280;10604;51.976;7.594;2024-01-15T01:24:58;99240.66;;;13.22;44.39
20889;BME280;10604;51.976;7.594;2024-01-15T01:27:23;99248.47;;;12.97;44.62
20889;BME280;10604;51.976;7.594;2024-01-15T01:29:49;99246.72;;;12.69;44.46
20889;BME280;10604;51.976;7.594;2024-01-15T01:32:14;99248.13;;;14.34;42.84
20889;BME280;10604;51.976;7.594;2024-01-15T01:34:40;99242.59;;;14.24;42.85
20889;BME280;10604;51.976;7.594;2024-01-15T01:37:06;99242.75;;;13.70;42.96
20889;BME280;10604;51.976;7.594;2024-01-15T01:39:32;99248.63;;;13.08;44.23
20889;BME280;10604;51.976;7.594;2024-01-15T01:41:57;99233.69;;;14.25;43.08
20889;BME280;10604;51.976;7.594;2024-01-15T01:44:22;99239.06;;;14.36;42.23
20889;BME280;10604;51.976;7.594;2024-01-15T01:46:47;99229.97;;;14.28;42.57
20889;BME280;10604;51.976;7.594;2024-01-15T01:49:13;99225.00;;;14.85;41.22
20889;BME280;10604;51.976;7.594;2024-01-15T01:51:38;99234.69;;;13.72;42.89
20889;BME280;10604;51.976;7.594;2024-01-15T01:54:04;99226.22;;;13.80;42.76
20889;BME280;10604;51.976;7.594;2024-01-15T01:56:30;99216.84;;;13.08;44.39
20889;BME280;10604;51.976;7.594;2024-01-15T01:58:55;99216.50;;;14.43;41.98
20889;BME280;10604;51.976;7.594;2024-01-15T02:01:21;99230.03;;;12.26;45.02
20889;BME280;10604;51.976;7.594;2024-01-15T02:03:46;99221.63;;;13.29;44.66
20889;BME280;10604;51.976;7.594;2024-01-15T02:06:11;99211.50;;;13.36;43.80
20889;BME280;10604;51.976;7.594;2024-01-15T02:08:37;99210.97;;;13.83;43.13
20889;BME280;10604;51.976;7.594;2024-01-15T02:11:03;99216.38;;;12.74;44.86
20889;BME280;10604;51.976;7.594;2024-01-15T02:13:28;99227.94;;;14.19;43.11
20889;BME280;10604;51.976;7.594;2024-01-15T02:15:53;99239.41;;;14.32;42.30
20889;BME280;10604;51.976;7.594;2024-01-15T02:18:19;99234.44;;;13.09;44.36
20889;BME280;10604;51.976;7.594;2024-01-15T02:20:45;99235.09;;;13.79;42.73
20889;BME280;10604;51.976;7.594;2024-01-15T02:23:11;99241.38;;;12.97;44.53
20889;BME280;10604;51.976;7.594;2024-01-15T02:25:38;99235.16;;;12.98;44.69
20889;BME280;10604;51.976;7.594;2024-01-15T02:28:04;99228.59;;;13.57;43.45
20889;BME280;10604;51.976;7.594;2024-01-15T02:30:30;99236.56;;;13.57;43.09
20889;BME280;10604;51.976;7.594;2024-01-15T02:32:56;99231.47;;;12.86;44.61
20889;BME280;10604;51.976;7.594;2024-01-15T02:35:21;99228.13;;;13.78;42.76
20889;BME280;10604;51.976;7.594;2024-01-15T02:37:46;99232.59;;;13.90;42.65
20889;BME280;10604;51.976;7.594;2024-01-15T02:40:12;99230.38;;;13.44;43.83
20889;BME280;10604;51.976;7.594;2024-01-15T02:42:37;99231.94;;;13.34;43.87
20889;BME280;10604;51.976;7.594;2024-01-15T02:45:02;99240.22;;;13.82;43.08
20889;BME280;10604;51.976;7.594;2024-01-15T02:47:28;99235.44;;;12.93;43.55
20889;BME280;10604;51.976;7.594;2024-01-15T02:49:53;99236.75;;;14.19;42.60
20889;BME280;10604;51.976;7.594;2024-01-15T02:52:18;99240.03;;;13.85;42.28
20889;BME280;10604;51.976;7.594;2024-01-15T02:54:43;99228.31;;;13.62;42.99
20889;BME280;10604;51.976;7.594;2024-01-15T02:57:09;99235.91;;;13.00;44.23
20889;BME280;10604;51.976;7.594;2024-01-15T02:59:34;99252.34;;;12.50;44.95
20889;BME280;10604;51.976;7.594;2024-01-15T03:01:59;99243.81;;;13.81;43.34
20889;BME280;10604;51.976;7.594;2024-01-15T03:04:24;99241.72;;;12.78;44.46
20889;BME280;10604;51.976;7.594;2024-01-15T03:06:49;99234.72;;;12.77;44.87
20889;BME280;10604;51.976;7.594;2024-01-15T03:09:15;99236.22;;;12.81;44.09
20889;BME280;10604;51.976;7.594;2024-01-15T03:11:40;99229.09;;;12.55;44.61
20889;BME280;10604;51.976;7.594;2024-01-15T03:14:05;99229.81;;;13.12;44.22
20889;BME280;10604;51.976;7.594;2024-01-15T03:16:31;99231.25;;;13.04;44.05
20889;BME280;10604;51.976;7.594;2024-01-15T03:18:56;99227.56;;;13.60;43.17
20889;BME280;10604;51.976;7.594;2024-01-15T03:21:21;99225.28;;;12.59;44.20
20889;BME280;10604;51.976;7.594;2024-01-15T03:23:46;99225.19;;;13.95;42.64
20889;BME280;10604;51.976;7.594;2024-01-15T03:26:12;99232.09;;;13.97;41.88
20889;BME280;10604;51.976;7.594;2024-01-15T03:28:37;99223.59;;;13.40;43.24
20889;BME280;10604;51.976;7.594;2024-01-15T03:31:02;99227.13;;;13.14;44.01
20889;BME280;10604;51.976;7.594;2024-01-15T03:33:27;99221.56;;;13.70;42.52
20889;BME280;10604;51.976;7.594;2024-01-15T03:35:53;99231.44;;;12.60;44.58
20889;BME280;10604;51.976;7.594;2024-01-15T03:38:18;99216.19;;;12.91;44.54
20889;BME280;10604;51.976;7.594;2024-01-15T03:40:43;99216.31;;;13.17;42.93
20889;BME280;10604;51.976;7.594;2024-01-15T03:43:08;99219.56;;;12.93;43.97
20889;BME280;10604;51.976;7.594;2024-01-15T03:45:33;99224.09;;;13.32;43.94
20889;BME280;10604;51.976;7.594;2024-01-15T03:47:59;99213.75;;;12.74;44.17
20889;BME280;10604;51.976;7.594;2024-01-15T03:50:24;99220.38;;;12.53;44.38
20889;BME280;10604;51.976;7.594;2024-01-15T03:52:50;99214.06;;;12.97;44.31
20889;BME280;10604;51.976;7.594;2024-01-15T03:55:15;99223.06;;;13.35;43.53
20889;BME280;10604;51.976;7.594;2024-01-15T03:57:40;99229.66;;;12.46;44.73
20889;BME280;10604;51.976;7.594;2024-01-15T04:00:06;99217.41;;;13.27;43.98
20889;BME280;10604;51.976;7.594;2024-01-15T04:02:32;99223.41;;;12.61;43.91
20889;BME280;10604;51.976;7.594;2024-01-15T04:04:57;99221.56;;;13.96;42.42
20889;BME280;10604;51.976;7.594;2024-01-15T04:07:23;99210.06;;;12.77;44.51
20889;BME280;10604;51.976;7.594;2024-01-15T04:09:48;99212.88;;;13.94;42.46
20889;BME280;10604;51.976;7.594;2024-01-15T04:12:13;99211.50;;;12.54;44.61
20889;BME280;10604;51.976;7.594;2024-01-15T04:14:38;99204.97;;;13.01;43.22
20889;BME280;10604;51.976;7.594;2024-01-15T04:17:04;99211.97;;;12.61;44.85
20889;BME280;10604;51.976;7.594;2024-01-15T04:19:29;99220.91;;;13.67;42.86
20889;BME280;10604;51.976;7.594;2024-01-15T04:21:54;99218.31;;;13.40;42.79
20889;BME280;10604;51.976;7.594;2024-01-15T04:24:20;99208.69;;;12.43;44.91
20889;BME280;10604;51.976;7.594;2024-01-15T04:26:45;99198.44;;;12.65;44.74
20889;BME280;10604;51.976;7.594;2024-01-15T04:29:10;99196.78;;;13.97;42.41
20889;BME280;10604;51.976;7.594;2024-01-15T04:31:35;99188.72;;;13.07;43.30
20889;BME280;10604;51.976;7.594;2024-01-15T04:34:01;99185.63;;;13.27;42.85
20889;BME280;10604;51.976;7.594;2024-01-15T04:36:26;99200.69;;;12.85;44.52
20889;BME280;10604;51.976;7.594;2024-01-15T04:38:51;99193.78;;;13.76;42.87
20889;BME280;10604;51.976;7.594;2024-01-15T04:41:16;99191.00;;;12.99;44.22
20889;BME280;10604;51.976;7.594;2024-01-15T04:43:41;99201.84;;;14.25;42.25
20889;BME280;10604;51.976;7.594;2024-01-15T04:46:07;99205.66;;;14.21;41.91
20889;BME280;10604;51.976;7.594;2024-01-15T04:48:32;99195.22;;;13.01;44.24
20889;BME280;10604;51.976;7.594;2024-01-15T04:50:57;99203.22;;;12.87;44.10
20889;BME280;10604;51.976;7.594;2024-01-15T04:53:23;99203.13;;;14.20;42.15
20889;BME280;10604;51.976;7.594;2024-01-15T04:55:48;99187.34;;;11.89;45.69
20889;BME280;10604;51.976;7.594;2024-01-15T04:58:13;99185.63;;;13.27;43.78
20889;BME280;10604;51.976;7.594;2024-01-15T05:00:38;99184.66;;;12.60;44.09
20889;BME280;10604;51.976;7.594;2024-01-15T05:03:04;99187.63;;;13.76;42.98
20889;BME280;10604;51.976;7.594;2024-01-15T05:05:29;99181.06;;;13.02;44.23
20889;BME280;10604;51.976;7.594;2024-01-15T05:07:54;99183.00;;;13.92;42.53
20889;BME280;10604;51.976;7.594;2024-01-15T05:10:19;99187.19;;;13.56;43.18
20889;BME280;10604;51.976;7.594;2024-01-15T05:12:45;99178.06;;;13.60;43.05
20889;BME280;10604;51.976;7.594;2024-01-15T05:15:10;99179.50;;;13.26;43.21
20889;BME280;10604;51.976;7.594;2024-01-15T05:17:35;99170.22;;;13.59;42.94
20889;BME280;10604;51.976;7.594;2024-01-15T05:20:01;99170.53;;;13.15;43.88
20889;BME280;10604;51.976;7.594;2024-01-15T05:22:26;99170.69;;;14.41;42.17
20889;BME280;10604;51.976;7.594;2024-01-15T05:24:51;99171.94;;;13.72;42.92
20889;BME280;10604;51.976;7.594;2024-01-15T05:27:16;99172.78;;;13.86;42.80
20889;BME280;10604;51.976;7.594;2024-01-15T05:29:42;99174.28;;;13.90;42.60
20889;BME280;10604;51.976;7.594;2024-01-15T05:32:07;99172.41;;;13.27;43.52
20889;BME280;10604;51.976;7.594;2024-01-15T05:34:32;99177.75;;;13.13;44.03
20889;BME280;10604;51.976;7.594;2024-01-15T05:36:57;99169.84;;;13.78;43.12
20889;BME280;10604;51.976;7.594;2024-01-15T05:39:22;99162.59;;;13.80;42.53
20889;BME280;10604;51.976;7.594;2024-01-15T05:41:48;99164.22;;;13.95;42.24
20889;BME280;10604;51.976;7.594;2024-01-15T05:44:13;99163.25;;;13.18;43.49
20889;BME280;10604;51.976;7.594;2024-01-15T05:46:38;99161.50;;;12.78;43.87
20889;BME280;10604;51.976;7.594;2024-01-15T05:49:03;99162.25;;;13.07;44.25
20889;BME280;10604;51.976;7.594;2024-01-15T05:51:29;99159.00;;;13.16;43.65
20889;BME280;10604;51.976;7.594;2024-01-15T05:53:54;99156.78;;;12.95;44.55
20889;BME280;10604;51.976;7.594;2024-01-15T05:56:19;99159.00;;;12.48;43.86
20889;BME280;10604;51.976;7.594;2024-01-15T05:58:44;99153.78;;;12.87;43.58
20889;BME280;10604;51.976;7.594;2024-01-15T06:01:09;99164.91;;;13.46;43.32
20889;BME280;10604;51.976;7.594;2024-01-15T06:03:35;99159.81;;;13.43;43.21
20889;BME280;10604;51.976;7.594;2024-01-15T06:06:00;99173.44;;;13.64;43.04
20889;BME280;10604;51.976;7.594;2024-01-15T06:08:25;99170.25;;;13.97;42.17
20889;BME280;10604;51.976;7.594;2024-01-15T06:10:52;99169.09;;;13.23;43.97
20889;BME280;10604;51.976;7.594;2024-01-15T06:13:17;99167.53;;;12.25;44.74
20889;BME280;10604;51.976;7.594;2024-01-15T06:15:43;99155.38;;;14.07;42.23
20889;BME280;10604;51.976;7.594;2024-01-15T06:18:08;99157.91;;;13.45;42.99
20889;BME280;10604;51.976;7.594;2024-01-15T06:20:33;99157.50;;;13.51;43.04
20889;BME280;10604;51.976;7.594;2024-01-15T06:22:58;99157.75;;;13.73;42.82
20889;BME280;10604;51.976;7.594;2024-01-15T06:25:23;99168.75;;;14.18;42.15
20889;BME280;10604;51.976;7.594;2024-01-15T06:27:49;99167.28;;;12.70;44.42
20889;BME280;10604;51.976;7.594;2024-01-15T06:30:14;99161.75;;;12.32;44.95
20889;BME280;10604;51.976;7.594;2024-01-15T06:32:39;99159.28;;;13.11;43.89
20889;BME280;10604;51.976;7.594;2024-01-15T06:35:05;99151.44;;;13.37;42.87
20889;BME280;10604;51.976;7.594;2024-01-15T06:37:30;99160.19;;;13.77;42.76
20889;BME280;10604;51.976;7.594;2024-01-15T06:39:57;99162.38;;;14.46;41.81
20889;BME280;10604;51.976;7.594;2024-01-15T06:42:22;99158.69;;;14.10;42.01
20889;BME280;10604;51.976;7.594;2024-01-15T06:44:47;99166.97;;;12.05;45.26
20889;BME280;10604;51.976;7.594;2024-01-15T06:47:13;99161.56;;;13.69;43.24
20889;BME280;10604;51.976;7.594;2024-01-15T06:49:39;99162.81;;;14.40;42.00
20889;BME280;10604;51.976;7.594;2024-01-15T06:52:05;99157.31;;;13.80;42.79
20889;BME280;10604;51.976;7.594;2024-01-15T06:54:30;99158.63;;;12.40;44.68
20889;BME280;10604;51.976;7.594;2024-01-15T06:56:55;99162.84;;;12.98;42.88
20889;BME280;10604;51.976;7.594;2024-01-15T06:59:20;99165.72;;;12.80;45.12
20889;BME280;10604;51.976;7.594;2024-01-15T07:01:46;99170.50;;;12.61;45.10
20889;BME280;10604;51.976;7.594;2024-01-15T07:04:11;99167.72;;;13.95;42.85
20889;BME280;10604;51.976;7.594;2024-01-15T07:06:36;99173.06;;;12.89;44.30
20889;BME280;10604;51.976;7.594;2024-01-15T07:09:01;99172.78;;;13.86;43.39
20889;BME280;10604;51.976;7.594;2024-01-15T07:11:27;99172.56;;;12.97;44.40
20889;BME280;10604;51.976;7.594;2024-01-15T07:13:52;99176.13;;;13.37;43.28
20889;BME280;10604;51.976;7.594;2024-01-15T07:16:17;99174.28;;;14.28;42.51
20889;BME280;10604;51.976;7.594;2024-01-15T07:18:42;99176.34;;;14.35;41.97
20889;BME280;10604;51.976;7.594;2024-01-15T07:21:08;99178.50;;;14.43;42.00
20889;BME280;10604;51.976;7.594;2024-01-15T07:23:33;99159.78;;;14.70;41.39
20889;BME280;10604;51.976;7.594;2024-01-15T07:25:58;99169.19;;;13.74;43.52
20889;BME280;10604;51.976;7.594;2024-01-15T07:28:23;99177.88;;;14.39;41.83
20889;BME280;10604;51.976;7.594;2024-01-15T07:30:49;99169.59;;;13.55;43.13
20889;BME280;10604;51.976;7.594;2024-01-15T07:33:14;99167.06;;;14.17;42.03
20889;BME280;10604;51.976;7.594;2024-01-15T07:35:39;99163.22;;;14.46;42.11
20889;BME280;10604;51.976;7.594;2024-01-15T07:38:04;99164.03;;;14.60;41.49
20889;BME280;10604;51.976;7.594;2024-01-15T07:40:30;99166.63;;;14.23;41.31
20889;BME280;10604;51.976;7.594;2024-01-15T07:42:55;99161.56;;;12.49;44.50
20889;BME280;10604;51.976;7.594;2024-01-15T07:45:20;99178.41;;;13.81;42.81
20889;BME280;10604;51.976;7.594;2024-01-15T07:47:46;99178.59;;;13.65;43.92
20889;BME280;10604;51.976;7.594;2024-01-15T07:50:11;99174.47;;;13.74;42.95
20889;BME280;10604;51.976;7.594;2024-01-15T07:52:36;99171.41;;;12.74;43.71
20889;BME280;10604;51.976;7.594;2024-01-15T07:55:01;99175.69;;;13.43;43.92
20889;BME280;10604;51.976;7.594;2024-01-15T07:57:28;99171.88;;;13.35;43.64
20889;BME280;10604;51.976;7.594;2024-01-15T07:59:53;99167.25;;;13.51;43.85
20889;BME280;10604;51.976;7.594;2024-01-15T08:02:19;99168.34;;;13.99;42.36
20889;BME280;10604;51.976;7.594;2024-01-15T08:04:44;99163.84;;;14.37;42.06
20889;BME280;10604;51.976;7.594;2024-01-15T08:07:10;99163.22;;;15.31;40.71
20889;BME280;10604;51.976;7.594;2024-01-15T08:09:36;99165.59;;;13.88;42.87
20889;BME280;10604;51.976;7.594;2024-01-15T08:12:01;99156.00;;;13.35;43.21
20889;BME280;10604;51.976;7.594;2024-01-15T08:14:26;99158.88;;;14.82;41.31
20889;BME280;10604;51.976;7.594;2024-01-15T08:16:51;99163.34;;;14.20;42.41
20889;BME280;10604;51.976;7.594;2024-01-15T08:19:17;99148.31;;;14.69;41.79
20889;BME280;10604;51.976;7.594;2024-01-15T08:21:42;99152.00;;;14.18;42.31
20889;BME280;10604;51.976;7.594;2024-01-15T08:24:08;99158.28;;;14.66;41.60
20889;BME280;10604;51.976;7.594;2024-01-15T08:26:33;99161.09;;;14.52;41.81
20889;BME280;10604;51.976;7.594;2024-01-15T08:28:58;99161.31;;;14.48;41.82
20889;BME280;10604;51.976;7.594;2024-01-15T08:31:24;99170.88;;;13.62;43.90
20889;BME280;10604;51.976;7.594;2024-01-15T08:33:49;99163.03;;;12.94;43.79
20889;BME280;10604;51.976;7.594;2024-01-15T08:36:14;99161.13;;;13.88;42.34
20889;BME280;10604;51.976;7.594;2024-01-15T08:38:40;99160.00;;;14.67;41.04
20889;BME280;10604;51.976;7.594;2024-01-15T08:41:05;99162.81;;;14.02;42.09
20889;BME280;10604;51.976;7.594;2024-01-15T08:43:30;99172.25;;;13.55;43.00
20889;BME280;10604;51.976;7.594;2024-01-15T08:45:56;99170.06;;;14.13;42.75
20889;BME280;10604;51.976;7.594;2024-01-15T08:48:21;99172.06;;;14.71;41.42
20889;BME280;10604;51.976;7.594;2024-01-15T08:50:46;99175.53;;;14.47;42.07
20889;BME280;10604;51.976;7.594;2024-01-15T08:53:12;99174.25;;;14.15;42.08
20889;BME280;10604;51.976;7.594;2024-01-15T08:55:37;99166.19;;;14.29;42.04
20889;BME280;10604;51.976;7.594;2024-01-15T08:58:03;99163.25;;;13.70;43.06
20889;BME280;10604;51.976;7.594;2024-01-15T09:00:28;99161.72;;;14.42;41.88
20889;BME280;10604;51.976;7.594;2024-01-15T09:02:54;99174.69;;;14.34;42.08
20889;BME280;10604;51.976;7.594;2024-01-15T09:05:19;99175.31;;;13.62;43.31
20889;BME280;10604;51.976;7.594;2024-01-15T09:07:44;99175.66;;;14.08;42.39
20889;BME280;10604;51.976;7.594;2024-01-15T09:10:11;99180.97;;;13.95;42.55
20889;BME280;10604;51.976;7.594;2024-01-15T09:12:36;99181.06;;;13.68;43.03
20889;BME280;10604;51.976;7.594;2024-01-15T09:15:01;99186.34;;;13.68;43.16
20889;BME280;10604;51.976;7.594;2024-01-15T09:17:29;99173.44;;;14.27;42.79
20889;BME280;10604;51.976;7.594;2024-01-15T09:19:54;99170.03;;;14.38;42.89
20889;BME280;10604;51.976;7.594;2024-01-15T09:22:19;99167.59;;;13.71;43.19
20889;BME280;10604;51.976;7.594;2024-01-15T09:24:45;99173.63;;;13.73;43.72
20889;BME280;10604;51.976;7.594;2024-01-15T09:27:10;99166.53;;;13.61;43.10
20889;BME280;10604;51.976;7.594;2024-01-15T09:29:35;99161.09;;;13.50;44.33
20889;BME280;10604;51.976;7.594;2024-01-15T09:32:04;99144.25;;;15.00;41.32
20889;BME280;10604;51.976;7.594;2024-01-15T09:34:30;99160.41;;;13.21;43.41
20889;BME280;10604;51.976;7.594;2024-01-15T09:36:55;99150.69;;;14.36;42.22
20889;BME280;10604;51.976;7.594;2024-01-15T09:39:21;99161.03;;;12.71;44.40
20889;BME280;10604;51.976;7.594;2024-01-15T09:41:48;99164.31;;;13.68;43.56
20889;BME280;10604;51.976;7.594;2024-01-15T09:44:13;99163.47;;;14.18;42.90
20889;BME280;10604;51.976;7.594;2024-01-15T09:46:39;99163.03;;;12.94;43.79
20889;BME280;10604;51.976;7.594;2024-01-15T09:49:06;99171.91;;;13.47;43.87
20889;BME280;10604;51.976;7.594;2024-01-15T09:51:31;99170.91;;;14.13;42.33
20889;BME280;10604;51.976;7.594;2024-01-15T09:53:57;99172.72;;;12.81;44.37
20889;BME280;10604;51.976;7.594;2024-01-15T09:56:22;99188.47;;;13.63;43.09
20889;BME280;10604;51.976;7.594;2024-01-15T09:58:47;99187.41;;;13.79;43.19
20889;BME280;10604;51.976;7.594;2024-01-15T10:01:13;99180.50;;;15.60;40.36
20889;BME280;10604;51.976;7.594;2024-01-15T10:03:40;99181.66;;;14.35;41.55
20889;BME280;10604;51.976;7.594;2024-01-15T10:06:05;99184.16;;;14.13;42.29
20889;BME280;10604;51.976;7.594;2024-01-15T10:08:31;99189.78;;;14.83;41.89
20889;BME280;10604;51.976;7.594;2024-01-15T10:10:57;99175.94;;;15.14;40.47
20889;BME280;10604;51.976;7.594;2024-01-15T10:13:23;99180.13;;;15.29;40.78
20889;BME280;10604;51.976;7.594;2024-01-15T10:15:48;99173.56;;;14.75;41.03
20889;BME280;10604;51.976;7.594;2024-01-15T10:18:13;99165.19;;;14.92;41.42
20889;BME280;10604;51.976;7.594;2024-01-15T10:20:39;99157.47;;;14.89;41.21
20889;BME280;10604;51.976;7.594;2024-01-15T10:23:05;99153.34;;;15.33;40.57
20889;BME280;10604;51.976;7.594;2024-01-15T10:25:30;99154.84;;;15.24;40.70
20889;BME280;10604;51.976;7.594;2024-01-15T10:27:59;99150.72;;;14.23;42.07
20889;BME280;10604;51.976;7.594;2024-01-15T10:30:25;99157.69;;;14.49;41.46
20889;BME280;10604;51.976;7.594;2024-01-15T10:33:03;99155.78;;;14.52;41.66
20889;BME280;10604;51.976;7.594;2024-01-15T10:35:32;99149.72;;;15.34;40.71
20889;BME280;10604;51.976;7.594;2024-01-15T10:38:01;99138.63;;;15.40;39.75
20889;BME280;10604;51.976;7.594;2024-01-15T10:40:26;99143.06;;;15.04;40.79
20889;BME280;10604;51.976;7.594;2024-01-15T10:42:52;99140.25;;;15.29;40.75
20889;BME280;10604;51.976;7.594;2024-01-15T10:45:17;99136.28;;;15.00;40.06
20889;BME280;10604;51.976;7.594;2024-01-15T10:47:43;99137.38;;;15.33;40.16
20889;BME280;10604;51.976;7.594;2024-01-15T10:50:08;99143.47;;;15.46;40.01
20889;BME280;10604;51.976;7.594;2024-01-15T10:52:35;99145.41;;;14.48;41.04
20889;BME280;10604;51.976;7.594;2024-01-15T10:55:00;99150.84;;;14.71;41.13
20889;BME280;10604;51.976;7.594;2024-01-15T10:57:27;99145.75;;;15.15;40.07
20889;BME280;10604;51.976;7.594;2024-01-15T10:59:55;99140.44;;;15.15;39.83
20889;BME280;10604;51.976;7.594;2024-01-15T11:02:20;99144.72;;;14.58;41.21
20889;BME280;10604;51.976;7.594;2024-01-15T11:04:45;99154.38;;;14.95;40.66
20889;BME280;10604;51.976;7.594;2024-01-15T11:07:11;99153.34;;;14.85;40.44
20889;BME280;10604;51.976;7.594;2024-01-15T11:09:38;99146.13;;;15.46;39.98
20889;BME280;10604;51.976;7.594;2024-01-15T11:12:07;99160.97;;;14.89;40.43
20889;BME280;10604;51.976;7.594;2024-01-15T11:14:33;99144.91;;;15.50;40.44
20889;BME280;10604;51.976;7.594;2024-01-15T11:16:58;99137.38;;;15.33;39.86
20889;BME280;10604;51.976;7.594;2024-01-15T11:19:35;99150.69;;;14.36;41.29
20889;BME280;10604;51.976;7.594;2024-01-15T11:22:01;99149.63;;;15.11;40.13
20889;BME280;10604;51.976;7.594;2024-01-15T11:24:36;99142.16;;;15.16;40.22
20889;BME280;10604;51.976;7.594;2024-01-15T11:27:02;99137.78;;;16.08;39.04
20889;BME280;10604;51.976;7.594;2024-01-15T11:29:29;99149.47;;;13.65;41.61
20889;BME280;10604;51.976;7.594;2024-01-15T11:34:19;99135.50;;;14.63;41.09
20889;BME280;10604;51.976;7.594;2024-01-15T11:42:00;99140.44;;;15.74;38.92
20889;BME280;10604;51.976;7.594;2024-01-15T11:44:25;99135.91;;;14.70;39.88
20889;BME280;10604;51.976;7.594;2024-01-15T11:46:57;99153.41;;;15.20;39.99
20889;BME280;10604;51.976;7.594;2024-01-15T11:52:06;99136.22;;;15.48;40.11
20889;BME280;10604;51.976;7.594;2024-01-15T11:54:33;99140.53;;;14.17;40.68
20889;BME280;10604;51.976;7.594;2024-01-15T11:57:02;99136.50;;;14.24;40.66
20889;BME280;10604;51.976;7.594;2024-01-15T11:59:29;99134.09;;;15.53;40.36
20889;BME280;10604;51.976;7.594;2024-01-15T12:01:54;99136.91;;;14.56;41.17
20889;BME280;10604;51.976;7.594;2024-01-15T12:04:20;99135.28;;;14.90;40.86
20889;BME280;10604;51.976;7.594;2024-01-15T12:06:45;99133.41;;;15.62;39.68
20889;BME280;10604;51.976;7.594;2024-01-15T12:09:11;99132.44;;;15.74;38.92
20889;BME280;10604;51.976;7.594;2024-01-15T12:11:36;99115.97;;;15.23;40.20
20889;BME280;10604;51.976;7.594;2024-01-15T12:14:04;99143.53;;;13.49;41.92
20889;BME280;10604;51.976;7.594;2024-01-15T12:16:29;99134.09;;;15.53;39.63
20889;BME280;10604;51.976;7.594;2024-01-15T12:18:54;99147.59;;;15.96;39.24
20889;BME280;10604;51.976;7.594;2024-01-15T12:21:19;99146.25;;;15.20;39.69
20889;BME280;10604;51.976;7.594;2024-01-15T12:23:47;99142.69;;;15.33;39.28
20889;BME280;10604;51.976;7.594;2024-01-15T12:26:13;99140.22;;;16.11;38.69
20889;BME280;10604;51.976;7.594;2024-01-15T12:28:39;99154.41;;;15.06;39.36
20889;BME280;10604;51.976;7.594;2024-01-15T12:31:05;99144.50;;;14.61;40.42
20889;BME280;10604;51.976;7.594;2024-01-15T12:33:30;99149.22;;;14.44;41.09
20889;BME280;10604;51.976;7.594;2024-01-15T12:35:55;99140.22;;;15.18;39.89
20889;BME280;10604;51.976;7.594;2024-01-15T12:38:20;99144.91;;;15.50;39.25
20889;BME280;10604;51.976;7.594;2024-01-15T12:40:46;99150.00;;;16.10;38.58
20889;BME280;10604;51.976;7.594;2024-01-15T12:43:11;99155.25;;;15.54;39.44
20889;BME280;10604;51.976;7.594;2024-01-15T12:45:36;99156.28;;;14.93;39.98
20889;BME280;10604;51.976;7.594;2024-01-15T12:48:03;99151.44;;;15.46;39.63
20889;BME280;10604;51.976;7.594;2024-01-15T12:50:28;99154.31;;;15.43;39.59
20889;BME280;10604;51.976;7.594;2024-01-15T12:52:54;99144.97;;;15.02;40.43
20889;BME280;10604;51.976;7.594;2024-01-15T12:55:19;99150.31;;;14.66;40.92
20889;BME280;10604;51.976;7.594;2024-01-15T12:57:44;99156.25;;;13.95;41.49
20889;BME280;10604;51.976;7.594;2024-01-15T13:00:10;99149.91;;;13.85;41.39